Moody Air Force Base, GA

7:58 PM EST on February 13, 2016 (GMT -0500)
Moody Air Force Base | | Change Station
CLOSE
Current Station
Airport
Location: Valdosta,
Elevation: 233 ft
Nearby Weather Stations
Active Advisory: Freeze Warning

Elev 233 ft 30.97 °N, 83.19 °W | Updated 1 hour ago

Clear
Clear
47 °F
Feels Like 47 °F
N
7
Wind Variable Wind from NNW

Today
High -- | Low -- °F
--% Chance of Precip.
Yesterday
High -- | Low -- °F
Precip. -- in
Pressure 30.31 in
Visibility 10.0 miles
Clouds Clear
Dew Point 20 °F
Humidity 34%
Rainfall 0.00 in
Snow Depth Not available.
7:15 AM 6:18 PM
Waxing Crescent, 36% visible
METAR KVAD 132358Z AUTO 34006KT 10SM CLR 08/M07 A3030 RMK AO2 SLP264 T00841066 10131 20084 52013 $
Pressure 30.31 in
Visibility 10.0 miles
Clouds Clear
Dew Point 20 °F
Humidity 34%
Rainfall 0.00 in
Snow Depth Not available.
7:15 AM 6:18 PM
Waxing Crescent, 36% visible
METAR KVAD 132358Z AUTO 34006KT 10SM CLR 08/M07 A3030 RMK AO2 SLP264 T00841066 10131 20084 52013 $

10-Day Weather Forecast

Almanac

Astronomy

Feb. 13, 2016 Rise Set
Actual Time
Civil Twilight
Nautical Twilight
Astronomical Twilight
Moon
Length of Visible Light
Length of Day
Tomorrow will be .
, % of the Moon is Illuminated

Today's Extremes

State Highs State Lows

Community

WunderPhotos

Upload Photos

1,892,715 photos uploaded!

WunderBlog® & News

Nearby

Air Quality

  Air Quality AQ Index Pollutant
Not available.

Snow Depth

Station Depth Elevation

Earthquake Activity

City Distance Mag. Time & Date
Minimum magnitude displayed is 2.5.

Coastal Water Temperatures

Place Temperature

Stations

Nearby Weather Stations

Station Location Temp. Windchill Dew Point Humidity Wind Precip. Elev Updated Type
                   

Watches & Warnings

Freeze Warning
Issued: 1:32 PM CST Feb. 13, 2016 – National Weather Service

... Freeze warning in effect from 4 am EST /3 am CST/ to 8 am EST
/7 am CST/ Sunday...

The National Weather Service in Tallahassee has issued a freeze
warning... which is in effect from 4 am EST /3 am CST/ to 8 am EST
/7 am CST/ Sunday. The freeze watch is no longer in effect.

* Temperature... 30 to 32 degrees.

* Duration... 3 to 6 hours.

Precautionary/preparedness actions...

A freeze warning means sub-freezing temperatures are imminent or
highly likely. These conditions will kill crops and other
sensitive vegetation.